Time;durP1;ratioP1;P1;durP2;ratioP2;P2;SDS_P1;SDS_P2;PMS_P1;PMS_P2;Temp;Humidity;BMP_temperature;BMP_pressure;BME280_temperature;BME280_humidity;BME280_pressure;Samples;Min_cycle;Max_cycle;Signal;HPM_P1;HPM_P2
2021/12/06 00:01:21;;;;;;;43.00;24.33;;;2.10;99.90;;;;;;6214668;23;20095;-85
2021/12/06 00:03:46;;;;;;;44.25;25.23;;;2.10;99.90;;;;;;6215175;23;20016;-85
2021/12/06 00:06:14;;;;;;;45.08;25.42;;;2.90;99.90;;;;;;6215798;23;20012;-84
2021/12/06 00:08:40;;;;;;;37.47;22.77;;;2.10;99.90;;;;;;6240899;23;20533;-84
2021/12/06 00:11:10;;;;;;;37.63;21.10;;;3.00;99.90;;;;;;6243324;22;20020;-83
2021/12/06 00:13:37;;;;;;;43.63;24.15;;;3.00;99.90;;;;;;6215782;23;20309;-85
2021/12/06 00:16:08;;;;;;;38.40;21.88;;;3.20;99.90;;;;;;6241011;23;20459;-83
2021/12/06 00:18:35;;;;;;;41.97;25.05;;;2.10;99.90;;;;;;6216223;23;20020;-84
2021/12/06 00:21:01;;;;;;;37.03;23.55;;;3.00;99.90;;;;;;6241435;23;20027;-84
2021/12/06 00:23:30;;;;;;;41.58;25.30;;;2.80;99.90;;;;;;6239828;23;20050;-85
2021/12/06 00:25:56;;;;;;;42.35;26.15;;;2.10;99.90;;;;;;6214825;23;20039;-84
2021/12/06 00:28:23;;;;;;;43.78;25.80;;;3.20;99.90;;;;;;6240431;23;20016;-85
2021/12/06 00:30:49;;;;;;;39.92;23.98;;;2.10;99.90;;;;;;6221639;22;20106;-84
2021/12/06 00:33:15;;;;;;;41.55;23.75;;;2.10;99.90;;;;;;6246413;22;20444;-85
2021/12/06 00:35:41;;;;;;;37.78;21.83;;;2.70;99.90;;;;;;6246307;22;20016;-84
2021/12/06 00:38:06;;;;;;;47.38;26.80;;;2.90;99.90;;;;;;6244638;22;20373;-84
2021/12/06 00:40:40;;;;;;;43.10;24.50;;;2.10;99.90;;;;;;6246010;22;20141;-84
2021/12/06 00:43:06;;;;;;;42.20;24.55;;;2.10;99.90;;;;;;6246177;22;20007;-84
2021/12/06 00:45:33;;;;;;;42.38;26.25;;;3.20;99.90;;;;;;6220457;22;20360;-81
2021/12/06 00:47:59;;;;;;;42.65;25.38;;;2.90;99.90;;;;;;6245162;22;20054;-83
2021/12/06 00:50:29;;;;;;;40.97;24.33;;;2.10;99.90;;;;;;6245938;22;20119;-84
2021/12/06 00:52:55;;;;;;;41.90;23.45;;;2.80;99.90;;;;;;6219707;22;20396;-84
2021/12/06 00:55:22;;;;;;;39.58;23.45;;;2.60;99.90;;;;;;6245940;22;20070;-85
2021/12/06 00:57:52;;;;;;;44.47;25.30;;;2.20;99.90;;;;;;6245860;22;20605;-85
2021/12/06 01:00:22;;;;;;;39.10;23.23;;;2.90;99.90;;;;;;6221210;22;20023;-84
2021/12/06 01:02:49;;;;;;;46.70;24.40;;;3.00;99.90;;;;;;6245112;22;20423;-84
2021/12/06 01:05:15;;;;;;;40.60;23.48;;;2.10;99.90;;;;;;6245401;22;20022;-84
2021/12/06 01:07:41;;;;;;;45.97;26.30;;;2.10;99.90;;;;;;6244406;22;20012;-84
2021/12/06 01:10:08;;;;;;;46.58;26.10;;;3.20;99.90;;;;;;6244816;22;20087;-85
2021/12/06 01:12:34;;;;;;;39.30;24.38;;;2.20;99.90;;;;;;6244565;22;20676;-85
2021/12/06 01:15:00;;;;;;;42.70;25.75;;;2.70;99.90;;;;;;6245883;22;20012;-84
2021/12/06 01:17:26;;;;;;;37.97;23.05;;;2.60;99.90;;;;;;6245834;22;20510;-84
2021/12/06 01:19:52;;;;;;;41.50;24.00;;;2.10;99.90;;;;;;6273176;22;20050;-84
2021/12/06 01:22:30;;;;;;;38.40;22.30;;;2.20;99.90;;;;;;6220207;22;20047;-85
2021/12/06 01:25:03;;;;;;;41.35;24.05;;;2.20;99.90;;;;;;6272663;22;20130;-84
2021/12/06 01:40:43;;;;;;;44.67;25.20;;;2.60;99.90;;;;;;6240462;23;20698;-84
2021/12/06 01:43:09;;;;;;;48.13;26.33;;;3.10;99.90;;;;;;6240920;23;20034;-84
2021/12/06 01:45:35;;;;;;;48.30;25.58;;;3.20;99.90;;;;;;6241017;23;20340;-85
2021/12/06 01:48:00;;;;;;;47.35;27.38;;;2.10;99.90;;;;;;6239877;23;20024;-84
2021/12/06 01:50:30;;;;;;;44.22;22.90;;;2.40;99.90;;;;;;6241358;23;20016;-84
2021/12/06 01:52:59;;;;;;;46.83;24.73;;;2.10;99.90;;;;;;6214705;23;20016;-84
2021/12/06 01:55:31;;;;;;;45.83;24.13;;;3.20;99.90;;;;;;6215763;23;20452;-85
2021/12/06 01:57:58;;;;;;;47.75;26.40;;;2.10;99.90;;;;;;6215444;23;20020;-84
2021/12/06 02:00:42;;;;;;;50.60;25.58;;;3.10;99.90;;;;;;6239602;23;20012;-84
2021/12/06 02:03:08;;;;;;;46.53;25.17;;;2.10;99.90;;;;;;6214979;23;20016;-85
2021/12/06 02:05:35;;;;;;;45.42;23.95;;;2.10;99.90;;;;;;6243903;22;20411;-85
2021/12/06 02:08:01;;;;;;;43.53;21.35;;;2.70;99.90;;;;;;6216381;23;20448;-85
2021/12/06 02:10:27;;;;;;;51.47;26.42;;;2.20;99.90;;;;;;6217861;23;20093;-84
2021/12/06 02:12:54;;;;;;;52.28;27.75;;;2.10;99.90;;;;;;6243094;23;20026;-85
2021/12/06 02:15:36;;;;;;;48.63;26.35;;;3.10;99.90;;;;;;6218172;23;20093;-84
2021/12/06 02:18:09;;;;;;;49.85;25.77;;;2.10;99.90;;;;;;6217693;23;20016;-85
2021/12/06 02:20:42;;;;;;;51.58;26.00;;;2.10;99.90;;;;;;6217551;23;20095;-85
2021/12/06 02:23:09;;;;;;;60.05;29.70;;;3.10;99.90;;;;;;6216792;23;20012;-84
2021/12/06 02:25:36;;;;;;;56.17;30.05;;;2.10;99.90;;;;;;6244020;22;20027;-85
2021/12/06 02:28:01;;;;;;;57.83;29.02;;;2.10;99.90;;;;;;6243271;22;20012;-84
2021/12/06 02:30:27;;;;;;;57.33;29.92;;;2.10;99.90;;;;;;6240752;23;20345;-85
2021/12/06 02:32:53;;;;;;;60.58;30.13;;;2.10;99.90;;;;;;6216937;23;20031;-85
2021/12/06 02:35:22;;;;;;;61.47;30.42;;;2.10;99.90;;;;;;6216867;23;20008;-86
2021/12/06 02:37:51;;;;;;;59.42;26.90;;;2.10;99.90;;;;;;6217034;23;20095;-84
2021/12/06 02:40:29;;;;;;;60.42;29.95;;;2.60;99.90;;;;;;6217166;23;20008;-87
2021/12/06 02:42:55;;;;;;;65.68;32.50;;;2.80;99.90;;;;;;6217134;23;20012;-84
2021/12/06 02:45:24;;;;;;;59.95;31.63;;;2.30;99.90;;;;;;6243968;22;20273;-84
2021/12/06 02:47:53;;;;;;;64.43;31.83;;;2.40;99.90;;;;;;6217202;23;20063;-86
2021/12/06 02:50:25;;;;;;;65.50;32.03;;;3.00;99.90;;;;;;6243001;23;20314;-86
2021/12/06 02:52:51;;;;;;;65.05;32.55;;;2.10;99.90;;;;;;6217297;23;20385;-85
2021/12/06 02:55:29;;;;;;;63.50;33.30;;;2.30;99.90;;;;;;6217426;23;20051;-84
2021/12/06 02:58:02;;;;;;;64.68;32.75;;;2.10;99.90;;;;;;6216956;23;20047;-86
2021/12/06 03:00:28;;;;;;;65.15;32.13;;;3.00;99.90;;;;;;6217350;23;20008;-86
2021/12/06 03:02:54;;;;;;;57.00;27.88;;;2.70;99.90;;;;;;6216577;23;20004;-84
2021/12/06 03:05:20;;;;;;;54.20;27.73;;;3.00;99.90;;;;;;6215025;23;20399;-86
2021/12/06 03:07:51;;;;;;;61.13;31.40;;;3.00;99.90;;;;;;6216098;23;20047;-86
2021/12/06 03:10:18;;;;;;;63.28;30.02;;;2.10;99.90;;;;;;6216066;23;20012;-85
2021/12/06 03:12:44;;;;;;;67.50;32.63;;;2.10;99.90;;;;;;6240595;23;20293;-86
2021/12/06 03:15:47;;;;;;;65.63;32.85;;;2.70;99.90;;;;;;6241189;23;20008;-86
2021/12/06 03:18:12;;;;;;;62.08;30.25;;;2.10;99.90;;;;;;6216096;23;20348;-84
2021/12/06 03:20:38;;;;;;;65.57;32.38;;;3.10;99.90;;;;;;6240478;23;20012;-83
2021/12/06 03:23:04;;;;;;;65.82;33.42;;;2.70;99.90;;;;;;6215058;23;20012;-83
2021/12/06 03:25:29;;;;;;;68.30;34.03;;;3.00;99.90;;;;;;6243474;23;20008;-85
2021/12/06 03:28:00;;;;;;;64.05;33.03;;;2.10;99.90;;;;;;6240892;23;20050;-84
2021/12/06 03:30:26;;;;;;;66.03;32.97;;;3.00;99.90;;;;;;6216024;23;20028;-83
2021/12/06 03:32:52;;;;;;;61.53;31.63;;;2.20;99.90;;;;;;6242205;22;20028;-83
2021/12/06 03:35:18;;;;;;;61.70;32.65;;;2.90;99.90;;;;;;6242038;22;20298;-83
2021/12/06 03:37:44;;;;;;;65.38;32.75;;;3.00;99.90;;;;;;6239404;23;20146;-84
2021/12/06 03:40:10;;;;;;;67.78;33.65;;;2.20;99.90;;;;;;6241119;23;20019;-84
2021/12/06 03:42:36;;;;;;;64.38;32.65;;;1.60;99.90;;;;;;6215773;23;20032;-83
2021/12/06 03:45:06;;;;;;;61.92;32.17;;;2.20;99.90;;;;;;6241006;23;20066;-83
2021/12/06 03:47:32;;;;;;;64.80;33.75;;;2.20;99.90;;;;;;6240876;23;20023;-83
2021/12/06 03:49:59;;;;;;;61.63;30.58;;;2.30;99.90;;;;;;6240885;23;20012;-84
2021/12/06 03:52:25;;;;;;;62.08;31.50;;;2.30;99.90;;;;;;6216925;23;20008;-84
2021/12/06 03:54:51;;;;;;;59.03;31.38;;;2.60;99.90;;;;;;6216567;23;20420;-84
2021/12/06 03:57:19;;;;;;;56.13;29.42;;;2.80;99.90;;;;;;6244130;22;20324;-84
2021/12/06 03:59:45;;;;;;;53.47;29.60;;;3.20;99.90;;;;;;6217127;23;20020;-84
2021/12/06 04:02:11;;;;;;;53.55;29.60;;;3.10;99.90;;;;;;6216341;23;20012;-85
2021/12/06 04:04:37;;;;;;;58.47;30.65;;;2.20;99.90;;;;;;6243130;22;20034;-83
2021/12/06 04:07:03;;;;;;;58.28;29.15;;;2.60;99.90;;;;;;6240650;23;20009;-83
2021/12/06 04:09:29;;;;;;;65.28;31.42;;;2.30;99.90;;;;;;6240861;23;20355;-84
2021/12/06 04:11:56;;;;;;;57.90;29.23;;;2.50;99.90;;;;;;6241600;23;20020;-84
2021/12/06 04:14:21;;;;;;;57.03;29.85;;;3.10;99.90;;;;;;6216709;23;20012;-84
2021/12/06 04:16:47;;;;;;;61.28;31.98;;;2.30;99.90;;;;;;6241922;23;20344;-84
2021/12/06 04:19:13;;;;;;;56.15;29.63;;;2.30;99.90;;;;;;6215520;23;20016;-84
2021/12/06 04:21:43;;;;;;;54.65;28.65;;;3.30;99.90;;;;;;6241660;23;20040;-84
2021/12/06 04:24:09;;;;;;;61.13;29.75;;;2.60;99.90;;;;;;6215930;23;20066;-85
2021/12/06 04:26:36;;;;;;;65.85;31.73;;;2.30;99.90;;;;;;6216486;23;20016;-84
2021/12/06 04:29:03;;;;;;;69.05;33.05;;;2.30;99.90;;;;;;6215974;23;20012;-84
2021/12/06 04:31:33;;;;;;;67.22;32.90;;;2.30;99.90;;;;;;6216499;23;20020;-83
2021/12/06 04:34:00;;;;;;;63.45;31.90;;;2.90;99.90;;;;;;6216208;23;20103;-84
2021/12/06 04:36:25;;;;;;;64.78;31.58;;;3.20;99.90;;;;;;6215837;23;20023;-84
2021/12/06 04:38:52;;;;;;;69.30;32.83;;;2.60;99.90;;;;;;6215585;23;20016;-84
2021/12/06 04:41:18;;;;;;;68.65;31.70;;;2.30;99.90;;;;;;6216982;23;20056;-84
2021/12/06 04:43:44;;;;;;;69.10;30.25;;;2.30;99.90;;;;;;6242098;23;20015;-84
2021/12/06 04:46:10;;;;;;;76.75;34.35;;;2.30;99.90;;;;;;6242386;23;20428;-83
2021/12/06 04:48:36;;;;;;;72.57;32.88;;;2.70;99.90;;;;;;6241803;23;20062;-84
2021/12/06 04:51:03;;;;;;;68.30;33.92;;;2.90;99.90;;;;;;6216937;23;20110;-84
2021/12/06 04:53:36;;;;;;;70.97;33.38;;;3.30;99.90;;;;;;6214943;23;20023;-83
2021/12/06 04:56:11;;;;;;;70.55;33.03;;;2.30;99.90;;;;;;6241849;23;20015;-84
2021/12/06 04:58:54;;;;;;;70.30;32.35;;;2.30;99.90;;;;;;6241930;23;20016;-84
2021/12/06 05:01:24;;;;;;;66.50;31.80;;;2.30;99.90;;;;;;6242983;22;20012;-84
2021/12/06 05:03:51;;;;;;;69.95;31.77;;;2.80;99.90;;;;;;6241912;23;20060;-84
2021/12/06 05:06:22;;;;;;;71.82;31.63;;;2.70;99.90;;;;;;6216262;23;20456;-84
2021/12/06 05:08:51;;;;;;;69.32;31.10;;;2.30;99.90;;;;;;6216309;23;20020;-84
2021/12/06 05:11:20;;;;;;;74.55;33.05;;;2.40;99.90;;;;;;6216529;23;20423;-84
2021/12/06 05:13:47;;;;;;;73.30;33.08;;;2.30;99.90;;;;;;6216327;23;20071;-84
2021/12/06 05:16:13;;;;;;;72.80;31.35;;;3.20;99.90;;;;;;6216911;23;20717;-84
2021/12/06 05:18:39;;;;;;;65.93;28.88;;;3.10;99.90;;;;;;6216262;23;20113;-84
2021/12/06 05:21:05;;;;;;;72.55;33.95;;;2.80;99.90;;;;;;6215506;23;20020;-84
2021/12/06 05:23:32;;;;;;;60.90;26.65;;;3.00;99.90;;;;;;6215364;23;20067;-84
2021/12/06 05:25:57;;;;;;;76.65;32.40;;;2.20;99.90;;;;;;6241184;23;20004;-83
2021/12/06 05:28:27;;;;;;;75.28;32.72;;;3.30;99.90;;;;;;6215978;23;20012;-83
2021/12/06 05:30:55;;;;;;;77.85;33.22;;;2.30;99.90;;;;;;6215917;23;20058;-84
2021/12/06 05:33:29;;;;;;;80.40;34.03;;;2.70;99.90;;;;;;6216137;23;20016;-84
2021/12/06 05:36:02;;;;;;;76.95;33.25;;;2.30;99.90;;;;;;6216635;23;20111;-84
2021/12/06 05:38:28;;;;;;;77.88;32.42;;;3.10;99.90;;;;;;6215890;23;20022;-84
2021/12/06 05:40:55;;;;;;;85.80;35.83;;;2.30;99.90;;;;;;6217534;23;20016;-84
2021/12/06 05:43:22;;;;;;;84.75;34.40;;;2.70;99.90;;;;;;6218240;23;20020;-83
2021/12/06 05:45:49;;;;;;;91.22;35.78;;;2.30;99.90;;;;;;6243849;23;20289;-84
2021/12/06 05:48:15;;;;;;;89.15;35.40;;;3.20;99.90;;;;;;6218721;23;20432;-84
2021/12/06 05:50:41;;;;;;;95.10;36.80;;;2.30;99.90;;;;;;6218943;23;20332;-84
2021/12/06 05:53:09;;;;;;;85.90;35.42;;;3.30;99.90;;;;;;6217259;23;20069;-83
2021/12/06 05:55:35;;;;;;;94.20;36.03;;;2.70;99.90;;;;;;6244384;23;20086;-84
2021/12/06 05:58:04;;;;;;;89.43;35.53;;;2.40;99.90;;;;;;6243391;23;20101;-84
2021/12/06 06:01:08;;;;;;;95.32;36.88;;;3.30;99.90;;;;;;6243920;23;20008;-84
2021/12/06 06:03:34;;;;;;;86.25;34.13;;;2.30;99.90;;;;;;6218136;23;20019;-84
2021/12/06 06:06:00;;;;;;;81.43;34.05;;;2.70;99.90;;;;;;6245358;23;20008;-85
2021/12/06 06:08:26;;;;;;;82.75;34.17;;;3.20;99.90;;;;;;6217229;23;20031;-84
2021/12/06 06:10:52;;;;;;;83.75;33.40;;;2.20;99.90;;;;;;6217451;23;20012;-84
2021/12/06 06:13:19;;;;;;;78.30;32.20;;;3.30;99.90;;;;;;6243098;23;20388;-84
2021/12/06 06:15:45;;;;;;;89.82;32.38;;;2.40;99.90;;;;;;6218795;23;20243;-84
2021/12/06 06:18:11;;;;;;;82.63;34.80;;;3.10;99.90;;;;;;6217880;23;20083;-83
2021/12/06 06:20:52;;;;;;;85.32;33.17;;;3.00;99.90;;;;;;6243817;23;20012;-84
2021/12/06 06:23:18;;;;;;;83.40;31.80;;;3.00;99.90;;;;;;6216915;23;20298;-84
2021/12/06 06:25:44;;;;;;;86.13;32.00;;;2.70;99.90;;;;;;6217648;23;20020;-84
2021/12/06 06:28:10;;;;;;;83.93;30.92;;;3.10;99.90;;;;;;6245008;23;20043;-83
2021/12/06 06:30:36;;;;;;;76.00;30.27;;;3.00;99.90;;;;;;6217533;23;20475;-84
2021/12/06 06:33:03;;;;;;;80.18;31.38;;;2.30;99.90;;;;;;6244822;23;20373;-84
2021/12/06 06:35:30;;;;;;;86.15;31.58;;;3.10;99.90;;;;;;6243541;23;20437;-83
2021/12/06 06:37:56;;;;;;;63.70;25.15;;;2.90;99.90;;;;;;6217294;23;20016;-85
2021/12/06 06:40:22;;;;;;;83.13;31.00;;;2.50;99.90;;;;;;6217874;23;20008;-84
2021/12/06 06:42:48;;;;;;;84.63;31.35;;;2.50;99.90;;;;;;6242899;23;20382;-86
2021/12/06 06:45:18;;;;;;;86.35;31.95;;;3.20;99.90;;;;;;6242776;23;20091;-85
2021/12/06 06:47:45;;;;;;;80.38;31.50;;;2.30;99.90;;;;;;6244886;22;20022;-82
2021/12/06 06:50:12;;;;;;;82.63;31.73;;;3.40;99.90;;;;;;6244764;22;20066;-82
2021/12/06 06:52:38;;;;;;;97.85;33.60;;;2.30;99.90;;;;;;6216536;23;20309;-82
2021/12/06 06:55:06;;;;;;;84.95;31.58;;;3.30;99.90;;;;;;6217427;23;20650;-83
2021/12/06 06:57:32;;;;;;;78.20;27.92;;;2.20;99.90;;;;;;6243572;23;20054;-82
2021/12/06 06:59:58;;;;;;;86.18;30.60;;;2.90;99.90;;;;;;6245610;22;20044;-82
2021/12/06 07:02:24;;;;;;;92.68;33.10;;;2.20;99.90;;;;;;6218093;23;20012;-82
2021/12/06 07:04:50;;;;;;;85.18;31.83;;;2.80;99.90;;;;;;6216315;23;20009;-84
2021/12/06 07:07:16;;;;;;;84.72;33.85;;;2.70;99.90;;;;;;6216176;23;20036;-84
2021/12/06 07:09:43;;;;;;;84.22;32.15;;;2.00;99.90;;;;;;6240717;23;20050;-83
2021/12/06 07:12:15;;;;;;;79.90;32.13;;;2.20;99.90;;;;;;6217007;23;20020;-84
2021/12/06 07:14:41;;;;;;;70.75;29.05;;;2.20;99.90;;;;;;6242216;23;20016;-82
2021/12/06 07:17:07;;;;;;;60.45;25.75;;;2.70;99.90;;;;;;6242213;23;20420;-83
2021/12/06 07:19:33;;;;;;;71.18;29.70;;;2.30;99.90;;;;;;6241986;23;20059;-84
2021/12/06 07:21:59;;;;;;;69.28;27.77;;;2.50;99.90;;;;;;6241694;23;20012;-85
2021/12/06 07:24:28;;;;;;;76.32;30.45;;;2.20;99.90;;;;;;6217150;23;20061;-83
2021/12/06 07:26:54;;;;;;;76.18;28.77;;;2.10;99.90;;;;;;6244986;23;20012;-82
2021/12/06 07:29:20;;;;;;;65.35;25.73;;;2.90;99.90;;;;;;6242891;23;20392;-82
2021/12/06 07:31:53;;;;;;;75.63;28.90;;;3.20;99.90;;;;;;6222232;22;20090;-82
2021/12/06 07:34:21;;;;;;;70.53;28.35;;;2.80;99.90;;;;;;6222341;22;20090;-82
2021/12/06 07:36:47;;;;;;;70.25;28.75;;;2.10;99.90;;;;;;6247203;22;20047;-84
2021/12/06 07:39:13;;;;;;;78.32;29.85;;;2.70;99.90;;;;;;6246884;22;20026;-84
2021/12/06 07:41:38;;;;;;;75.05;29.92;;;2.40;99.90;;;;;;6247708;22;20122;-84
2021/12/06 07:44:04;;;;;;;80.55;30.65;;;2.30;99.90;;;;;;6247908;22;20019;-84
2021/12/06 07:46:50;;;;;;;75.05;29.30;;;2.30;99.90;;;;;;6247242;22;20016;-83
2021/12/06 07:49:28;;;;;;;78.13;30.15;;;2.40;99.90;;;;;;6247181;22;20026;-82
2021/12/06 07:51:54;;;;;;;86.28;31.52;;;2.80;99.90;;;;;;6274224;22;20110;-83
2021/12/06 07:54:20;;;;;;;86.10;31.90;;;2.40;99.90;;;;;;6221167;22;20016;-80
2021/12/06 07:56:46;;;;;;;76.65;29.73;;;2.30;99.90;;;;;;6248071;22;20411;-83
2021/12/06 07:59:11;;;;;;;82.00;31.17;;;3.10;99.90;;;;;;6247729;22;20064;-84
2021/12/06 08:01:37;;;;;;;76.65;30.77;;;2.30;99.90;;;;;;6247529;22;20008;-83
2021/12/06 08:04:04;;;;;;;86.50;31.98;;;3.10;99.90;;;;;;6247356;22;20043;-83
2021/12/06 08:06:30;;;;;;;79.97;30.02;;;2.40;99.90;;;;;;6221550;22;20034;-80
2021/12/06 08:08:56;;;;;;;86.78;30.20;;;2.40;99.90;;;;;;6274222;22;20106;-83
2021/12/06 08:11:25;;;;;;;82.65;30.77;;;2.50;99.90;;;;;;6222056;22;20015;-82
2021/12/06 08:13:56;;;;;;;76.07;30.00;;;3.40;99.90;;;;;;6247583;22;20031;-82
2021/12/06 08:16:28;;;;;;;81.63;31.48;;;2.40;99.90;;;;;;6246843;22;20021;-81
2021/12/06 08:18:54;;;;;;;77.63;28.35;;;2.50;99.90;;;;;;6220731;22;20039;-79
2021/12/06 08:21:22;;;;;;;84.18;32.65;;;3.40;99.90;;;;;;6245233;22;20023;-78
2021/12/06 08:23:49;;;;;;;83.20;31.65;;;2.40;99.90;;;;;;6273991;22;20355;-84
2021/12/06 08:26:19;;;;;;;86.15;31.30;;;3.30;99.90;;;;;;6222918;22;20387;-82
2021/12/06 08:28:48;;;;;;;78.70;29.75;;;2.60;99.90;;;;;;6247567;22;20023;-82
2021/12/06 08:31:14;;;;;;;80.40;30.42;;;2.40;99.90;;;;;;6246499;22;20023;-83
2021/12/06 08:33:41;;;;;;;86.30;31.52;;;3.40;99.90;;;;;;6274522;22;20087;-83
2021/12/06 08:36:09;;;;;;;84.68;32.00;;;2.70;99.90;;;;;;6244906;22;20007;-83
2021/12/06 08:38:36;;;;;;;86.68;32.20;;;2.50;99.90;;;;;;6218908;22;20015;-82
2021/12/06 08:41:06;;;;;;;81.63;30.77;;;3.10;99.90;;;;;;6245939;22;20007;-83
2021/12/06 08:43:32;;;;;;;87.18;31.42;;;2.60;99.90;;;;;;6272688;22;20016;-83
2021/12/06 08:49:30;;;;;;;69.63;30.13;;;2.60;99.90;;;;;;6091619;23;20396;-83
2021/12/06 08:51:57;;;;;;;73.38;29.30;;;4.40;99.90;;;;;;6066297;23;20490;-82
2021/12/06 08:54:27;;;;;;;73.70;31.25;;;3.40;99.90;;;;;;6066084;23;20068;-82
2021/12/06 08:56:58;;;;;;;75.30;30.42;;;3.30;99.90;;;;;;6066576;23;20022;-82
2021/12/06 08:59:24;;;;;;;77.80;31.60;;;4.00;99.90;;;;;;6092010;23;20081;-82
2021/12/06 09:01:51;;;;;;;78.55;30.67;;;3.10;99.90;;;;;;6066182;23;20022;-82
2021/12/06 09:04:21;;;;;;;76.30;31.30;;;3.00;99.90;;;;;;6066514;23;20018;-89
2021/12/06 09:06:50;;;;;;;79.35;30.92;;;3.00;99.90;;;;;;6067359;23;20088;-91
2021/12/06 09:09:17;;;;;;;73.10;29.75;;;3.00;99.90;;;;;;6066409;23;20064;-82
2021/12/06 09:11:45;;;;;;;68.05;27.98;;;2.90;99.90;;;;;;6066945;23;20018;-83
2021/12/06 09:14:12;;;;;;;76.07;29.50;;;3.30;99.90;;;;;;6066040;23;20113;-83
2021/12/06 09:16:38;;;;;;;66.38;26.88;;;3.10;99.90;;;;;;6066106;23;20049;-81
2021/12/06 09:19:07;;;;;;;80.13;30.38;;;3.60;99.90;;;;;;6090745;23;20336;-81
2021/12/06 09:21:37;;;;;;;74.38;29.25;;;3.30;99.90;;;;;;6146044;23;20017;-81
2021/12/06 09:24:09;;;;;;;72.90;28.17;;;3.00;99.90;;;;;;6125275;23;20387;-79
2021/12/06 09:26:35;;;;;;;70.43;28.77;;;3.10;99.90;;;;;;6221482;22;20018;-80
2021/12/06 09:29:02;;;;;;;67.65;28.40;;;3.10;99.90;;;;;;6220980;22;20347;-80
2021/12/06 09:31:28;;;;;;;66.22;27.92;;;3.10;99.90;;;;;;6221237;22;20020;-79
2021/12/06 09:33:53;;;;;;;65.93;28.92;;;3.20;99.90;;;;;;6273856;22;20011;-79
2021/12/06 09:36:21;;;;;;;64.50;26.83;;;3.20;99.90;;;;;;6245893;22;20034;-79
2021/12/06 09:38:47;;;;;;;65.15;27.17;;;3.20;99.90;;;;;;6219359;22;20011;-79
2021/12/06 09:41:19;;;;;;;60.08;26.77;;;3.30;99.90;;;;;;6220404;22;20019;-81
2021/12/06 09:43:47;;;;;;;64.07;26.42;;;3.40;99.90;;;;;;6221193;22;20098;-83
2021/12/06 09:46:13;;;;;;;55.50;25.30;;;3.30;99.90;;;;;;6219795;22;20243;-79
2021/12/06 09:48:41;;;;;;;54.80;23.92;;;4.10;99.90;;;;;;6244986;22;20034;-79
2021/12/06 09:51:16;;;;;;;57.88;25.90;;;4.20;99.90;;;;;;6219533;22;20090;-80
2021/12/06 09:53:44;;;;;;;56.75;24.88;;;3.40;99.90;;;;;;6219095;22;20015;-80
2021/12/06 09:56:13;;;;;;;56.65;26.27;;;3.30;99.90;;;;;;6273429;22;20018;-80
2021/12/06 09:58:39;;;;;;;52.08;25.10;;;3.30;99.90;;;;;;6221556;22;20016;-84
2021/12/06 10:01:19;;;;;;;55.92;26.20;;;3.30;99.90;;;;;;6246774;22;20014;-84
2021/12/06 10:03:49;;;;;;;49.30;23.65;;;3.20;99.90;;;;;;6242618;22;20453;-83
2021/12/06 10:06:17;;;;;;;42.50;21.25;;;3.10;99.90;;;;;;6220643;22;20446;-84
2021/12/06 10:08:45;;;;;;;45.95;22.05;;;3.20;99.90;;;;;;6245101;22;20022;-84
2021/12/06 10:11:14;;;;;;;46.70;22.80;;;3.20;99.90;;;;;;6246541;22;20016;-83
2021/12/06 10:13:41;;;;;;;49.72;22.17;;;4.10;99.90;;;;;;6245921;22;20047;-84
2021/12/06 10:16:07;;;;;;;48.25;22.15;;;3.90;99.90;;;;;;6244616;22;20016;-82
2021/12/06 10:18:33;;;;;;;44.80;22.75;;;4.30;99.90;;;;;;6219459;22;20055;-82
2021/12/06 10:21:00;;;;;;;44.88;21.50;;;3.50;99.90;;;;;;6245697;22;20426;-82
2021/12/06 10:23:27;;;;;;;44.88;21.88;;;3.40;99.90;;;;;;6245562;22;20517;-83
2021/12/06 10:25:54;;;;;;;48.90;22.20;;;3.30;99.90;;;;;;6245527;22;20008;-82
2021/12/06 10:28:23;;;;;;;44.33;22.33;;;3.30;99.90;;;;;;6246639;22;20019;-82
2021/12/06 10:30:52;;;;;;;49.05;22.15;;;3.30;99.90;;;;;;6220751;22;20501;-83
2021/12/06 10:33:22;;;;;;;47.70;23.35;;;3.50;99.90;;;;;;6247701;22;20019;-82
2021/12/06 10:35:51;;;;;;;47.10;23.52;;;3.00;99.90;;;;;;6221323;22;20016;-82
2021/12/06 10:38:25;;;;;;;49.90;24.17;;;3.30;99.90;;;;;;6221458;22;20065;-82
2021/12/06 10:41:00;;;;;;;45.20;21.65;;;3.20;99.90;;;;;;6247457;22;20241;-85
2021/12/06 10:43:26;;;;;;;45.20;22.52;;;3.20;99.90;;;;;;6221873;22;20327;-82
2021/12/06 10:45:54;;;;;;;45.72;21.95;;;3.70;99.90;;;;;;6247144;22;20015;-81
2021/12/06 10:48:26;;;;;;;44.60;22.50;;;4.10;99.90;;;;;;6247160;22;20026;-82
2021/12/06 10:50:52;;;;;;;40.83;21.80;;;3.30;99.90;;;;;;6275994;22;20065;-83
2021/12/06 10:53:27;;;;;;;44.10;20.58;;;3.30;99.90;;;;;;6222500;22;20016;-84
2021/12/06 10:55:56;;;;;;;41.85;21.00;;;4.00;99.90;;;;;;6248546;22;20012;-85
2021/12/06 10:58:26;;;;;;;39.95;21.02;;;3.30;99.90;;;;;;6222609;22;20316;-83
2021/12/06 11:00:56;;;;;;;43.00;21.00;;;3.60;99.90;;;;;;6223468;22;20046;-84
2021/12/06 11:03:29;;;;;;;47.65;22.10;;;3.50;99.90;;;;;;6248419;22;20008;-84
2021/12/06 11:06:03;;;;;;;42.97;21.23;;;3.20;99.90;;;;;;6249074;22;20043;-82
2021/12/06 11:08:30;;;;;;;43.45;23.10;;;3.30;99.90;;;;;;6221879;22;20011;-82
2021/12/06 11:11:01;;;;;;;47.40;21.77;;;3.30;99.90;;;;;;6248475;22;20065;-84
2021/12/06 11:13:34;;;;;;;43.15;22.63;;;3.30;99.90;;;;;;6275800;22;20071;-82
2021/12/06 11:16:11;;;;;;;44.25;21.85;;;3.30;99.90;;;;;;6248654;22;20308;-83
2021/12/06 11:19:04;;;;;;;49.65;23.45;;;3.20;99.90;;;;;;6248417;22;20015;-81
2021/12/06 11:21:33;;;;;;;48.90;22.95;;;3.20;99.90;;;;;;6247531;22;20021;-84
2021/12/06 11:24:23;;;;;;;46.97;23.17;;;3.20;99.90;;;;;;6221661;22;20410;-83
2021/12/06 11:26:51;;;;;;;52.00;25.23;;;3.20;99.90;;;;;;6248468;22;20091;-84
2021/12/06 11:29:24;;;;;;;55.95;26.55;;;3.20;99.90;;;;;;6275898;22;20034;-87
2021/12/06 11:32:40;;;;;;;56.47;27.30;;;3.30;99.90;;;;;;6222559;22;20026;-84
2021/12/06 11:35:19;;;;;;;62.63;29.27;;;3.30;99.90;;;;;;6220536;22;20012;-87
2021/12/06 11:37:52;;;;;;;63.33;31.08;;;3.30;99.90;;;;;;6222375;22;20335;-86
2021/12/06 11:40:38;;;;;;;72.68;32.80;;;3.20;99.90;;;;;;6247653;22;20016;-88
2021/12/06 11:43:12;;;;;;;63.60;30.75;;;3.10;99.90;;;;;;6223014;22;20108;-84
2021/12/06 11:45:53;;;;;;;60.00;28.73;;;3.40;99.90;;;;;;6248155;22;20011;-84
2021/12/06 11:48:22;;;;;;;70.10;31.73;;;2.90;99.90;;;;;;6248157;22;20074;-85
2021/12/06 11:51:16;;;;;;;55.15;25.42;;;4.20;99.90;;;;;;6223252;22;20022;-85
2021/12/06 11:53:52;;;;;;;60.95;29.45;;;3.50;99.90;;;;;;6220669;22;20038;-86
2021/12/06 11:56:29;;;;;;;53.22;26.27;;;3.50;99.90;;;;;;6222071;22;20466;-87
2021/12/06 11:59:02;;;;;;;56.30;25.75;;;2.80;99.90;;;;;;6222563;22;20347;-85
2021/12/06 12:01:39;;;;;;;48.78;24.27;;;4.10;99.90;;;;;;6246634;22;20022;-85
2021/12/06 12:04:18;;;;;;;49.22;22.98;;;3.60;99.90;;;;;;6222286;22;20083;-86
2021/12/06 12:06:47;;;;;;;46.20;23.33;;;3.60;99.90;;;;;;6221070;22;20007;-85
2021/12/06 12:09:29;;;;;;;42.50;22.85;;;3.10;99.90;;;;;;6221784;22;20447;-85
2021/12/06 12:12:12;;;;;;;43.13;20.95;;;3.60;99.90;;;;;;6221671;22;20381;-87
2021/12/06 12:14:49;;;;;;;39.88;19.45;;;3.70;99.90;;;;;;6221658;22;20284;-84
2021/12/06 12:17:20;;;;;;;38.50;19.65;;;3.70;99.90;;;;;;6221883;22;20426;-84
2021/12/06 12:19:47;;;;;;;36.25;18.98;;;3.80;99.90;;;;;;6246881;22;20019;-84
2021/12/06 12:22:14;;;;;;;35.42;18.20;;;4.10;99.90;;;;;;6221778;22;20019;-85
2021/12/06 12:24:44;;;;;;;35.70;18.20;;;4.40;99.90;;;;;;6246763;22;20230;-84
2021/12/06 12:27:23;;;;;;;30.42;17.17;;;4.60;99.90;;;;;;6221175;22;20023;-83
2021/12/06 12:29:51;;;;;;;31.45;16.85;;;4.00;99.90;;;;;;6220604;22;20089;-83
2021/12/06 12:32:17;;;;;;;32.53;18.38;;;3.70;99.90;;;;;;6222098;22;20030;-85
2021/12/06 12:34:46;;;;;;;34.33;18.33;;;3.60;99.90;;;;;;6247808;22;20015;-82
2021/12/06 12:37:15;;;;;;;35.58;18.45;;;3.90;99.90;;;;;;6221865;22;20082;-85
2021/12/06 12:39:41;;;;;;;36.25;19.27;;;3.90;99.90;;;;;;6221836;22;20015;-85
2021/12/06 12:42:09;;;;;;;35.10;18.42;;;4.30;99.90;;;;;;6246846;22;20031;-85
2021/12/06 12:44:54;;;;;;;38.20;19.08;;;3.90;99.90;;;;;;6247043;22;20562;-90
2021/12/06 12:47:34;;;;;;;37.25;19.92;;;3.60;99.90;;;;;;6222663;22;20055;-87
2021/12/06 12:50:15;;;;;;;38.40;20.42;;;3.70;99.90;;;;;;6246249;22;20091;-92
2021/12/06 12:52:52;;;;;;;37.42;18.70;;;4.40;99.90;;;;;;6272776;22;20019;-87
2021/12/06 12:55:36;;;;;;;38.70;20.02;;;3.60;99.90;;;;;;6221650;22;20041;-88
2021/12/06 12:58:09;;;;;;;35.15;19.48;;;3.60;99.90;;;;;;6221287;22;20019;-87
2021/12/06 13:01:03;;;;;;;38.05;19.63;;;4.00;99.90;;;;;;6220541;22;20483;-88
2021/12/06 13:03:40;;;;;;;39.38;19.75;;;4.10;99.90;;;;;;6220243;22;20415;-84